This is the latest recevied weather packets stored in our database for station/object HS5NMF. If no packets are shown the sender has not sent any weather packets the latest 10 day(s).
| Time | Temp. | Humidity | Pressure | Rain* | Wind** | Luminosity | Snow |
|---|---|---|---|---|---|---|---|
| 1777544482 | 31.11° C | 60% | 975 hPa | - | - | 0 W/m² | - |
| 1777544159 | 31.67° C | 60% | 975 hPa | - | - | 0 W/m² | - |
| 1777543836 | 32.22° C | 59% | 975 hPa | - | - | 0 W/m² | - |
| 1777543514 | 32.78° C | 56% | 975 hPa | - | - | 0 W/m² | - |
| 1777543191 | 34.44° C | 50% | 975 hPa | - | - | 0 W/m² | - |
| 1777542868 | 33.89° C | 53% | 975 hPa | - | - | 0 W/m² | - |
| 1777542545 | 33.33° C | 55% | 975 hPa | - | - | 0 W/m² | - |
| 1777542223 | 33.33° C | 57% | 975 hPa | - | - | 0 W/m² | - |
| 1777541901 | 33.33° C | 60% | 975 hPa | - | - | 0 W/m² | - |
| 1777541577 | 33.33° C | 61% | 976 hPa | - | - | 0 W/m² | - |
| 1777541253 | 33.89° C | 63% | 976 hPa | - | - | 0 W/m² | - |
| 1777540929 | 33.89° C | 61% | 975 hPa | - | - | 0 W/m² | - |
| 1777540607 | 34.44° C | 60% | 975 hPa | - | - | 0 W/m² | - |
| 1777540283 | 33.89° C | 62% | 975 hPa | - | - | 0 W/m² | - |
| 1777539960 | 34.44° C | 60% | 975 hPa | - | - | 0 W/m² | - |
| 1777539638 | 33.89° C | 62% | 975 hPa | - | - | 0 W/m² | - |
| 1777539323 | 33.89° C | 61% | 975 hPa | - | - | 0 W/m² | - |
| 1777539314 | 33.89° C | 61% | 975 hPa | - | - | 0 W/m² | - |
| 1777538991 | 33.89° C | 62% | 975 hPa | - | - | 0 W/m² | - |
| 1777538668 | 33.89° C | 62% | 975 hPa | - | - | 0 W/m² | - |
| 1777538345 | 33.89° C | 62% | 975 hPa | - | - | 0 W/m² | - |
| 1777538024 | 33.89° C | 62% | 975 hPa | - | - | 0 W/m² | - |
| 1777537701 | 34.44° C | 63% | 976 hPa | - | - | 0 W/m² | - |
| 1777537378 | 33.89° C | 63% | 976 hPa | - | - | 0 W/m² | - |
| 1777537055 | 33.89° C | 61% | 976 hPa | - | - | 0 W/m² | - |
* Rain since midnight (hover to see other rain measurements)
** Current wind speed in m/s (hover to see current wind gust speed)